Time;durP1;ratioP1;P1;durP2;ratioP2;P2;SDS_P1;SDS_P2;PMS_P1;PMS_P2;Temp;Humidity;BMP_temperature;BMP_pressure;BME280_temperature;BME280_humidity;BME280_pressure;Samples;Min_cycle;Max_cycle;Signal;HPM_P1;HPM_P2
2022/09/24 00:01:50;;;;;;;38.80;31.45;;;13.10;99.90;;;;;;4823327;29;20061;-67
2022/09/24 00:04:16;;;;;;;38.72;32.42;;;13.10;99.90;;;;;;4807134;29;20058;-67
2022/09/24 00:06:44;;;;;;;34.97;29.98;;;13.10;99.90;;;;;;4823819;29;20113;-67
2022/09/24 00:09:12;;;;;;;37.45;30.98;;;13.10;99.90;;;;;;4792308;29;20157;-67
2022/09/24 00:11:38;;;;;;;35.00;30.48;;;13.10;99.90;;;;;;4816073;29;20062;-67
2022/09/24 00:14:05;;;;;;;35.65;30.38;;;13.10;99.90;;;;;;4806410;29;20062;-67
2022/09/24 00:16:33;;;;;;;42.65;34.47;;;13.10;99.90;;;;;;4800920;29;20365;-67
2022/09/24 00:19:00;;;;;;;43.80;35.75;;;13.10;99.90;;;;;;4822604;29;20137;-68
2022/09/24 00:21:31;;;;;;;42.25;33.13;;;13.10;99.90;;;;;;4790577;29;20058;-67
2022/09/24 00:23:59;;;;;;;43.53;32.43;;;13.20;99.90;;;;;;4823066;29;20066;-67
2022/09/24 00:29:11;;;;;;;40.75;31.15;;;13.10;99.90;;;;;;4807572;29;20391;-67
2022/09/24 00:31:37;;;;;;;41.95;33.25;;;13.10;99.90;;;;;;4823042;29;20111;-67
2022/09/24 00:34:02;;;;;;;37.25;32.10;;;13.10;99.90;;;;;;4823030;29;20082;-67
2022/09/24 00:36:28;;;;;;;41.22;32.80;;;13.10;99.90;;;;;;4823768;29;20054;-67
2022/09/24 00:38:57;;;;;;;43.75;35.60;;;13.10;99.90;;;;;;4822844;29;20034;-67
2022/09/24 00:41:26;;;;;;;44.95;35.75;;;13.10;99.90;;;;;;4820100;29;20042;-67
2022/09/24 00:43:52;;;;;;;41.92;33.63;;;13.10;99.90;;;;;;4826295;29;20062;-68
2022/09/24 00:46:24;;;;;;;42.22;34.63;;;13.10;99.90;;;;;;4810647;29;20064;-67
2022/09/24 00:48:53;;;;;;;40.05;33.47;;;13.10;99.90;;;;;;4809746;29;20329;-67
2022/09/24 00:51:22;;;;;;;45.13;35.42;;;13.10;99.90;;;;;;4827192;29;20073;-68
2022/09/24 00:53:51;;;;;;;43.10;34.42;;;13.10;99.90;;;;;;4825872;29;20133;-67
2022/09/24 00:56:19;;;;;;;39.35;32.30;;;13.10;99.90;;;;;;4821818;29;20337;-67
2022/09/24 00:58:51;;;;;;;43.28;36.35;;;13.10;99.90;;;;;;4808207;29;20428;-67
2022/09/24 01:01:18;;;;;;;42.20;34.45;;;13.10;99.90;;;;;;4819741;29;20162;-66
2022/09/24 01:03:45;;;;;;;43.63;34.53;;;13.10;99.90;;;;;;4823618;29;20042;-67
2022/09/24 01:06:11;;;;;;;42.97;34.97;;;13.10;99.90;;;;;;4809418;29;20424;-68
2022/09/24 01:08:41;;;;;;;45.97;35.47;;;13.10;99.90;;;;;;4794515;29;20493;-68
2022/09/24 01:11:31;;;;;;;46.50;36.17;;;13.10;99.90;;;;;;4826336;29;20038;-67
2022/09/24 01:14:41;;;;;;;40.45;34.03;;;13.10;99.90;;;;;;4825413;29;20042;-67
2022/09/24 01:17:25;;;;;;;43.05;33.53;;;13.10;99.90;;;;;;4769709;30;20130;-68
2022/09/24 01:20:10;;;;;;;47.25;35.33;;;13.00;99.90;;;;;;4754658;30;20485;-66
2022/09/24 01:23:19;;;;;;;45.05;36.17;;;13.00;99.90;;;;;;4809548;29;20130;-67
2022/09/24 01:25:58;;;;;;;43.60;35.40;;;13.00;99.90;;;;;;4808983;29;20058;-68
2022/09/24 01:28:34;;;;;;;48.28;37.50;;;13.00;99.90;;;;;;4823620;29;20053;-67
2022/09/24 01:31:07;;;;;;;49.85;37.08;;;13.00;99.90;;;;;;4822373;29;20051;-67
2022/09/24 01:33:35;;;;;;;47.80;38.08;;;13.00;99.90;;;;;;4809387;29;20093;-67
2022/09/24 01:36:07;;;;;;;48.33;36.85;;;13.00;99.90;;;;;;4824487;29;20515;-67
2022/09/24 01:38:38;;;;;;;50.23;37.10;;;13.00;99.90;;;;;;4823303;29;20054;-67
2022/09/24 01:41:04;;;;;;;50.35;38.95;;;13.10;99.90;;;;;;4824950;29;20061;-67
2022/09/24 01:43:31;;;;;;;50.03;38.15;;;13.10;99.90;;;;;;4824475;29;20046;-67
2022/09/24 01:46:01;;;;;;;50.38;38.05;;;13.00;99.90;;;;;;4808190;29;20192;-67
2022/09/24 01:48:27;;;;;;;52.25;38.13;;;13.10;99.90;;;;;;4808485;29;20046;-67
2022/09/24 01:51:10;;;;;;;46.88;37.30;;;13.00;99.90;;;;;;4823044;29;20183;-67
2022/09/24 01:53:42;;;;;;;49.30;37.63;;;13.00;99.90;;;;;;4813068;29;20492;-67
2022/09/24 01:56:17;;;;;;;48.63;37.47;;;13.00;99.90;;;;;;4825042;29;20081;-67
2022/09/24 01:58:50;;;;;;;45.22;35.47;;;13.00;99.90;;;;;;4822013;29;20061;-67
2022/09/24 02:01:23;;;;;;;53.25;37.80;;;13.00;99.90;;;;;;4824455;29;20050;-67
2022/09/24 02:03:57;;;;;;;54.70;40.45;;;13.00;99.90;;;;;;4808080;29;20480;-67
2022/09/24 02:06:30;;;;;;;45.78;35.63;;;13.00;99.90;;;;;;4819148;29;20050;-67
2022/09/24 02:08:57;;;;;;;46.45;36.13;;;13.00;99.90;;;;;;4814045;29;20129;-67
2022/09/24 02:11:23;;;;;;;48.38;37.10;;;12.90;99.90;;;;;;4808677;29;20087;-67
2022/09/24 02:13:59;;;;;;;47.17;37.20;;;13.00;99.90;;;;;;4808176;29;20046;-67
2022/09/24 02:16:29;;;;;;;47.42;36.63;;;13.00;99.90;;;;;;4807972;29;20142;-67
2022/09/24 02:18:59;;;;;;;50.53;37.40;;;13.00;99.90;;;;;;4823506;29;20046;-67
2022/09/24 02:21:26;;;;;;;52.78;38.65;;;13.00;99.90;;;;;;4821330;29;20087;-67
2022/09/24 02:24:08;;;;;;;48.00;36.85;;;13.00;99.90;;;;;;4790026;29;20042;-67
2022/09/24 02:26:34;;;;;;;47.60;35.88;;;12.90;99.90;;;;;;4812975;29;20053;-67
2022/09/24 02:28:59;;;;;;;51.65;37.38;;;12.90;99.90;;;;;;4815703;29;20046;-67
2022/09/24 02:31:29;;;;;;;50.92;38.40;;;12.90;99.90;;;;;;4824211;29;20042;-67
2022/09/24 02:36:42;;;;;;;53.50;38.20;;;12.90;99.90;;;;;;4823368;29;20055;-66
2022/09/24 02:39:08;;;;;;;53.80;38.83;;;12.90;99.90;;;;;;4822642;29;20047;-67
2022/09/24 02:41:35;;;;;;;52.97;39.35;;;12.80;99.90;;;;;;4822782;29;20084;-66
2022/09/24 02:44:01;;;;;;;54.45;38.00;;;12.80;99.90;;;;;;4823734;29;20069;-67
2022/09/24 02:46:27;;;;;;;54.20;39.35;;;12.80;99.90;;;;;;4823761;29;20057;-67
2022/09/24 02:48:52;;;;;;;49.53;38.28;;;12.90;99.90;;;;;;4823070;29;20080;-68
2022/09/24 02:51:18;;;;;;;49.53;35.97;;;12.80;99.90;;;;;;4824068;29;20039;-67
2022/09/24 02:53:44;;;;;;;46.20;34.28;;;12.80;99.90;;;;;;4824093;29;20379;-66
2022/09/24 02:56:10;;;;;;;51.67;37.92;;;12.80;99.90;;;;;;4823080;29;20206;-67
2022/09/24 02:58:36;;;;;;;45.80;34.03;;;12.80;99.90;;;;;;4821953;29;20054;-67
2022/09/24 03:01:04;;;;;;;54.15;39.42;;;12.80;99.90;;;;;;4824358;29;20046;-67
2022/09/24 03:03:29;;;;;;;52.20;37.92;;;12.70;99.90;;;;;;4824314;29;20121;-67
2022/09/24 03:05:55;;;;;;;49.92;36.97;;;12.80;99.90;;;;;;4807534;29;20129;-67
2022/09/24 03:08:23;;;;;;;52.78;37.55;;;12.70;99.90;;;;;;4823836;29;20429;-67
2022/09/24 03:10:52;;;;;;;48.70;34.72;;;12.70;99.90;;;;;;4792982;29;20054;-67
2022/09/24 03:13:27;;;;;;;47.20;35.63;;;12.70;99.90;;;;;;4792342;29;20417;-68
2022/09/24 03:15:53;;;;;;;53.90;37.85;;;12.70;99.90;;;;;;4806789;29;20070;-67
2022/09/24 03:19:02;;;;;;;51.60;37.85;;;12.70;99.90;;;;;;4792752;29;20104;-67
2022/09/24 03:21:40;;;;;;;53.45;37.38;;;12.90;99.90;;;;;;4792827;29;20488;-67
2022/09/24 03:24:05;;;;;;;56.13;38.88;;;12.70;99.90;;;;;;4792615;29;20126;-67
2022/09/24 03:26:31;;;;;;;51.38;37.20;;;12.70;99.90;;;;;;4807411;29;20161;-67
2022/09/24 03:28:57;;;;;;;53.60;38.30;;;12.70;99.90;;;;;;4824163;29;20053;-67
2022/09/24 03:31:23;;;;;;;52.25;38.35;;;12.70;99.90;;;;;;4807638;29;20137;-67
2022/09/24 03:33:49;;;;;;;53.33;38.33;;;12.70;99.90;;;;;;4807221;29;20050;-67
2022/09/24 03:36:23;;;;;;;51.75;37.67;;;12.70;99.90;;;;;;4793086;29;20043;-67
2022/09/24 03:38:55;;;;;;;51.90;37.70;;;12.70;99.90;;;;;;4806861;29;20057;-67
2022/09/24 03:41:22;;;;;;;52.42;38.10;;;12.70;99.90;;;;;;4823820;29;20047;-66
2022/09/24 03:43:48;;;;;;;56.42;37.65;;;12.60;99.90;;;;;;4792406;29;20053;-67
2022/09/24 03:46:15;;;;;;;50.75;37.45;;;12.90;99.90;;;;;;4792774;29;20202;-68
2022/09/24 03:48:46;;;;;;;49.90;36.92;;;12.70;99.90;;;;;;4792339;29;20043;-67
2022/09/24 03:51:18;;;;;;;52.97;35.28;;;12.80;99.90;;;;;;4792562;29;20046;-67
2022/09/24 03:53:45;;;;;;;51.05;36.58;;;12.40;99.90;;;;;;4791782;29;20042;-67
2022/09/24 03:56:11;;;;;;;49.97;36.42;;;12.80;99.90;;;;;;4809098;29;20034;-68
2022/09/24 03:58:38;;;;;;;48.95;35.88;;;12.70;99.90;;;;;;4805011;29;20532;-67
2022/09/24 04:01:07;;;;;;;56.72;38.13;;;12.70;99.90;;;;;;4820837;29;20446;-67
2022/09/24 04:03:34;;;;;;;53.47;37.67;;;12.80;99.90;;;;;;4806639;29;20373;-67
2022/09/24 04:06:00;;;;;;;45.25;33.80;;;12.80;99.90;;;;;;4820525;29;20063;-68
2022/09/24 04:08:26;;;;;;;42.90;32.17;;;12.80;99.90;;;;;;4822321;29;20050;-67
2022/09/24 04:10:51;;;;;;;48.17;36.20;;;12.80;99.90;;;;;;4823528;29;20058;-67
2022/09/24 04:13:18;;;;;;;53.35;38.50;;;12.80;99.90;;;;;;4822720;29;20047;-67
2022/09/24 04:15:44;;;;;;;47.28;36.33;;;12.70;99.90;;;;;;4824239;29;20081;-67
2022/09/24 04:18:10;;;;;;;56.63;39.38;;;12.80;99.90;;;;;;4826726;29;20536;-67
2022/09/24 04:20:36;;;;;;;53.80;37.47;;;12.80;99.90;;;;;;4795241;29;20117;-67
2022/09/24 04:23:02;;;;;;;50.92;36.92;;;12.80;99.90;;;;;;4826386;29;20146;-67
2022/09/24 04:25:31;;;;;;;50.55;36.60;;;12.80;99.90;;;;;;4826935;29;20399;-67
2022/09/24 04:27:59;;;;;;;56.00;38.90;;;12.80;99.90;;;;;;4826467;29;20118;-67
2022/09/24 04:30:26;;;;;;;55.90;38.55;;;12.80;99.90;;;;;;4795385;29;20066;-67
2022/09/24 04:32:52;;;;;;;51.75;38.78;;;12.80;99.90;;;;;;4826744;29;20046;-67
2022/09/24 04:35:18;;;;;;;52.05;36.90;;;12.80;99.90;;;;;;4826782;29;20061;-67
2022/09/24 04:37:45;;;;;;;43.13;32.75;;;12.80;99.90;;;;;;4810455;29;20133;-67
2022/09/24 04:40:11;;;;;;;55.45;39.47;;;12.80;99.90;;;;;;4809988;29;20068;-67
2022/09/24 04:42:38;;;;;;;50.22;36.55;;;12.90;99.90;;;;;;4826170;29;20043;-67
2022/09/24 04:45:06;;;;;;;56.67;38.10;;;12.90;99.90;;;;;;4810062;29;20103;-67
2022/09/24 04:47:33;;;;;;;47.45;35.42;;;12.80;99.90;;;;;;4825842;29;20051;-67
2022/09/24 04:49:59;;;;;;;48.92;35.22;;;12.80;99.90;;;;;;4826506;29;20125;-67
2022/09/24 04:52:28;;;;;;;53.30;35.00;;;12.80;99.90;;;;;;4826504;29;20085;-66
2022/09/24 04:54:54;;;;;;;50.53;36.55;;;12.80;99.90;;;;;;4825866;29;20050;-67
2022/09/24 04:57:21;;;;;;;47.05;36.15;;;12.80;99.90;;;;;;4810038;29;20488;-67
2022/09/24 04:59:47;;;;;;;49.35;36.90;;;12.80;99.90;;;;;;4826223;29;20175;-68
2022/09/24 05:02:13;;;;;;;51.05;36.92;;;12.80;99.90;;;;;;4822689;29;20153;-67
2022/09/24 05:04:38;;;;;;;49.85;36.25;;;12.80;99.90;;;;;;4804648;29;20058;-67
2022/09/24 05:07:04;;;;;;;52.10;36.83;;;12.80;99.90;;;;;;4823177;29;20199;-68
2022/09/24 05:09:30;;;;;;;54.50;38.60;;;12.80;99.90;;;;;;4823339;29;20054;-68
2022/09/24 05:11:57;;;;;;;57.78;39.50;;;12.90;99.90;;;;;;4788378;29;20139;-67
2022/09/24 05:14:22;;;;;;;58.92;40.72;;;12.80;99.90;;;;;;4823978;29;20053;-67
2022/09/24 05:16:48;;;;;;;55.80;40.20;;;12.90;99.90;;;;;;4823549;29;20042;-67
2022/09/24 05:19:14;;;;;;;50.22;35.22;;;12.90;99.90;;;;;;4827713;29;20049;-67
2022/09/24 05:21:39;;;;;;;59.28;40.42;;;12.90;99.90;;;;;;4808438;29;20122;-67
2022/09/24 05:24:05;;;;;;;47.50;35.80;;;12.90;99.90;;;;;;4805115;29;20076;-67
2022/09/24 05:29:15;;;;;;;47.30;34.60;;;12.90;99.90;;;;;;4823690;29;20050;-67
2022/09/24 05:31:41;;;;;;;55.58;37.20;;;12.90;99.90;;;;;;4807851;29;20109;-67
2022/09/24 05:34:06;;;;;;;57.28;39.35;;;13.00;99.90;;;;;;4829383;29;20483;-67
2022/09/24 05:36:59;;;;;;;52.50;37.03;;;12.90;99.90;;;;;;4797719;29;20050;-68
2022/09/24 05:39:28;;;;;;;52.83;39.20;;;12.90;99.90;;;;;;4788928;29;20038;-67
2022/09/24 05:42:20;;;;;;;56.33;40.40;;;12.90;99.90;;;;;;4791382;29;20038;-67
2022/09/24 05:44:47;;;;;;;48.13;34.28;;;12.90;99.90;;;;;;4797020;29;20083;-67
2022/09/24 05:47:13;;;;;;;46.47;34.13;;;12.90;99.90;;;;;;4786532;29;20098;-67
2022/09/24 05:49:39;;;;;;;56.33;38.22;;;12.90;99.90;;;;;;4823523;29;20121;-67
2022/09/24 05:52:05;;;;;;;54.08;40.13;;;12.90;99.90;;;;;;4792825;29;20156;-67
2022/09/24 05:58:36;;;;;;;53.40;38.38;;;13.00;99.90;;;;;;4824879;29;20149;-67
2022/09/24 06:01:02;;;;;;;43.63;33.97;;;13.00;99.90;;;;;;4805687;29;20142;-67
2022/09/24 06:07:33;;;;;;;50.05;35.08;;;13.00;99.90;;;;;;4820065;29;20178;-67
2022/09/24 06:09:59;;;;;;;52.45;37.25;;;12.80;99.90;;;;;;4806966;29;20509;-68
2022/09/24 06:12:51;;;;;;;52.45;37.13;;;12.90;99.90;;;;;;4791731;29;20043;-67
2022/09/24 06:23:34;;;;;;;64.82;41.65;;;13.00;99.90;;;;;;4806158;29;20491;-69
2022/09/24 06:26:00;;;;;;;67.00;43.03;;;13.00;99.90;;;;;;4812255;29;20045;-67
2022/09/24 06:28:26;;;;;;;69.82;43.08;;;13.00;99.90;;;;;;4779827;29;20051;-67
2022/09/24 06:30:52;;;;;;;72.90;44.88;;;12.90;99.90;;;;;;4776072;29;20145;-67
2022/09/24 06:33:19;;;;;;;50.42;35.22;;;13.00;99.90;;;;;;4806430;29;20145;-67
2022/09/24 06:35:48;;;;;;;62.60;40.53;;;13.00;99.90;;;;;;4806138;29;20255;-67
2022/09/24 06:38:16;;;;;;;77.70;44.20;;;13.10;99.90;;;;;;4805895;29;20049;-68
2022/09/24 06:40:44;;;;;;;83.15;45.47;;;13.00;99.90;;;;;;4823803;29;20052;-67
2022/09/24 06:43:19;;;;;;;77.82;43.60;;;13.00;99.90;;;;;;4808142;29;20099;-68
2022/09/24 06:45:45;;;;;;;57.65;36.72;;;13.00;99.90;;;;;;4808224;29;20038;-67
2022/09/24 06:48:12;;;;;;;66.20;39.90;;;13.00;99.90;;;;;;4824650;29;20052;-68
2022/09/24 06:50:43;;;;;;;65.22;41.42;;;13.00;99.90;;;;;;4807717;29;20398;-68
2022/09/24 06:53:10;;;;;;;55.65;34.38;;;13.00;99.90;;;;;;4806535;29;20085;-68
2022/09/24 06:55:37;;;;;;;66.32;36.30;;;13.00;99.90;;;;;;4824110;29;20050;-68
2022/09/24 06:58:09;;;;;;;42.75;29.10;;;13.00;99.90;;;;;;4824191;29;20050;-68
2022/09/24 07:00:38;;;;;;;45.47;29.42;;;13.00;99.90;;;;;;4807113;29;20054;-69
2022/09/24 07:03:05;;;;;;;40.33;26.63;;;13.00;99.90;;;;;;4814948;29;20054;-68
2022/09/24 07:05:33;;;;;;;41.58;27.77;;;13.00;99.90;;;;;;4824110;29;20039;-67
2022/09/24 07:07:59;;;;;;;43.65;28.05;;;13.00;99.90;;;;;;4823391;29;20430;-66
2022/09/24 07:10:26;;;;;;;43.58;26.65;;;13.10;99.90;;;;;;4824102;29;20046;-68
2022/09/24 07:12:52;;;;;;;38.53;24.50;;;13.00;99.90;;;;;;4822379;29;20174;-68
2022/09/24 07:15:17;;;;;;;40.92;27.38;;;13.10;99.90;;;;;;4806849;29;20121;-68
2022/09/24 07:17:43;;;;;;;56.60;30.30;;;13.10;99.90;;;;;;4791958;29;20054;-67
2022/09/24 07:20:09;;;;;;;36.25;24.23;;;13.20;99.90;;;;;;4824315;29;20121;-67
2022/09/24 07:22:39;;;;;;;34.63;23.48;;;13.20;99.90;;;;;;4823981;29;20046;-68
2022/09/24 07:25:10;;;;;;;40.15;24.73;;;13.20;99.90;;;;;;4806392;29;20170;-67
2022/09/24 07:27:37;;;;;;;42.08;25.58;;;13.30;99.90;;;;;;4822221;29;20488;-68
2022/09/24 07:30:05;;;;;;;38.38;24.23;;;13.30;99.90;;;;;;4807012;29;20061;-67
2022/09/24 07:32:30;;;;;;;42.10;25.30;;;13.40;99.90;;;;;;4822447;29;20396;-67
2022/09/24 07:34:56;;;;;;;38.00;23.83;;;13.40;99.90;;;;;;4823335;29;20046;-67
2022/09/24 07:37:21;;;;;;;32.72;22.58;;;13.50;99.90;;;;;;4806744;29;20046;-67
2022/09/24 07:39:47;;;;;;;32.55;21.08;;;13.50;99.90;;;;;;4822557;29;20047;-67
2022/09/24 07:42:12;;;;;;;26.55;18.70;;;13.50;99.90;;;;;;4820091;29;20083;-67
2022/09/24 07:44:38;;;;;;;30.80;20.58;;;13.50;99.90;;;;;;4823418;29;20066;-67
2022/09/24 07:47:09;;;;;;;32.20;21.10;;;13.60;99.90;;;;;;4807085;29;20066;-67
2022/09/24 07:49:38;;;;;;;29.35;19.00;;;13.60;99.90;;;;;;4806586;29;20042;-67
2022/09/24 07:55:46;;;;;;;24.55;17.52;;;;;;;;;;4809396;29;20106;-67
2022/09/24 07:58:13;;;;;;;27.67;17.88;;;13.80;99.90;;;;;;4795410;29;20426;-68
2022/09/24 08:00:39;;;;;;;29.92;19.15;;;13.80;99.90;;;;;;4795672;29;20049;-67
2022/09/24 08:03:08;;;;;;;25.90;16.73;;;13.80;99.90;;;;;;4810486;29;20046;-68
2022/09/24 08:05:33;;;;;;;25.63;16.40;;;13.90;99.90;;;;;;4810316;29;20068;-68
2022/09/24 08:07:59;;;;;;;25.10;16.63;;;14.00;99.90;;;;;;4825930;29;20045;-68
2022/09/24 08:10:26;;;;;;;24.60;16.48;;;14.00;99.90;;;;;;4826199;29;20052;-68
2022/09/24 08:12:57;;;;;;;29.10;16.98;;;14.10;99.90;;;;;;4810176;29;20510;-70
2022/09/24 08:15:23;;;;;;;25.42;16.10;;;14.20;99.90;;;;;;4825125;29;20412;-68
2022/09/24 08:17:49;;;;;;;28.27;16.88;;;13.90;99.90;;;;;;4825559;29;20038;-68
2022/09/24 08:20:15;;;;;;;21.13;14.40;;;14.00;99.90;;;;;;4810019;29;20414;-67
2022/09/24 08:22:40;;;;;;;24.38;15.05;;;14.10;99.90;;;;;;4826328;29;20049;-67
2022/09/24 08:25:06;;;;;;;26.55;14.07;;;14.10;99.90;;;;;;4809337;29;20050;-67
2022/09/24 08:27:35;;;;;;;22.05;13.63;;;14.20;99.90;;;;;;4809408;29;20480;-68
2022/09/24 08:30:02;;;;;;;18.13;11.45;;;14.30;99.90;;;;;;4813366;29;20085;-68
2022/09/24 08:32:28;;;;;;;17.42;9.00;;;14.30;99.90;;;;;;4805245;29;20050;-68
2022/09/24 08:34:54;;;;;;;17.85;9.40;;;14.30;99.90;;;;;;4809917;29;20099;-68
2022/09/24 08:37:19;;;;;;;17.52;8.00;;;14.30;99.90;;;;;;4823733;29;21258;-68
2022/09/24 08:39:45;;;;;;;16.17;7.63;;;14.30;99.90;;;;;;4806536;29;20461;-67
2022/09/24 08:42:27;;;;;;;10.32;5.00;;;14.40;99.90;;;;;;4809936;29;20443;-68
2022/09/24 08:47:53;;;;;;;16.80;3.58;;;14.40;99.90;;;;;;4826127;29;19921;-67
2022/09/24 08:50:27;;;;;;;11.90;3.35;;;14.40;99.90;;;;;;4825238;29;20053;-69
2022/09/24 08:53:11;;;;;;;10.60;2.72;;;14.50;99.90;;;;;;4826593;29;20092;-68
2022/09/24 08:55:48;;;;;;;8.68;2.22;;;14.60;99.90;;;;;;4825764;29;20102;-68
2022/09/24 08:58:33;;;;;;;7.78;1.92;;;14.70;99.90;;;;;;4809189;29;20060;-67
2022/09/24 09:01:16;;;;;;;6.18;1.75;;;14.70;99.90;;;;;;4815367;29;20130;-68
2022/09/24 09:04:04;;;;;;;7.55;1.67;;;14.70;99.90;;;;;;4824178;29;20078;-69
2022/09/24 09:06:44;;;;;;;4.75;1.70;;;14.80;99.90;;;;;;4791997;29;20792;-68
2022/09/24 09:09:20;;;;;;;5.32;1.80;;;14.80;99.90;;;;;;4808935;29;20042;-68
2022/09/24 09:11:50;;;;;;;6.75;1.90;;;14.80;99.90;;;;;;4825808;29;20057;-68
2022/09/24 09:14:46;;;;;;;5.70;1.75;;;14.90;99.90;;;;;;4825136;29;20099;-67
2022/09/24 09:17:40;;;;;;;7.60;1.50;;;15.00;99.90;;;;;;4825779;29;20050;-67
2022/09/24 09:20:14;;;;;;;6.55;1.90;;;15.00;99.90;;;;;;4824540;29;20054;-67
2022/09/24 09:22:47;;;;;;;6.93;1.73;;;15.00;99.90;;;;;;4825647;29;20154;-68
2022/09/24 09:25:23;;;;;;;5.35;1.35;;;15.00;99.90;;;;;;4824275;29;20073;-67
2022/09/24 09:28:01;;;;;;;8.45;1.90;;;15.00;99.90;;;;;;4823203;29;20051;-67
2022/09/24 09:30:34;;;;;;;7.30;2.15;;;15.10;99.90;;;;;;4825590;29;20053;-67
2022/09/24 09:33:15;;;;;;;5.70;1.42;;;15.10;99.90;;;;;;4825883;29;20050;-68
2022/09/24 09:35:52;;;;;;;8.07;1.80;;;15.10;99.90;;;;;;4836210;29;20050;-67
2022/09/24 09:38:41;;;;;;;8.10;1.60;;;15.10;99.90;;;;;;4811859;29;20069;-68
2022/09/24 09:41:14;;;;;;;7.43;1.60;;;15.30;99.90;;;;;;4836572;29;20110;-67
2022/09/24 09:43:40;;;;;;;4.03;1.55;;;15.30;99.90;;;;;;4825634;29;20107;-68
2022/09/24 09:46:14;;;;;;;7.40;1.90;;;15.40;99.90;;;;;;4809155;29;20046;-68
2022/09/24 09:48:46;;;;;;;6.68;1.60;;;15.40;99.90;;;;;;4822919;29;20499;-68
2022/09/24 09:51:18;;;;;;;6.13;1.45;;;15.50;99.90;;;;;;4825138;29;20034;-67
2022/09/24 09:53:59;;;;;;;11.15;2.22;;;15.50;99.90;;;;;;4824559;29;20043;-68
2022/09/24 09:56:29;;;;;;;6.90;1.88;;;15.50;99.90;;;;;;4817254;29;20488;-68
2022/09/24 09:59:22;;;;;;;6.63;1.60;;;15.50;99.90;;;;;;4825527;29;20057;-67
2022/09/24 10:01:55;;;;;;;8.40;1.88;;;15.60;99.90;;;;;;4807532;29;20484;-67
2022/09/24 10:04:39;;;;;;;;;;;15.80;99.90;;;;;;4807380;29;20076;-67
2022/09/24 10:07:11;;;;;;;9.75;2.17;;;15.80;99.90;;;;;;4823238;29;19916;-68
2022/09/24 10:09:37;;;;;;;7.38;1.70;;;15.90;99.90;;;;;;4824591;29;20054;-67
2022/09/24 10:12:17;;;;;;;6.45;1.98;;;16.00;99.90;;;;;;4822890;29;20539;-68
2022/09/24 10:14:43;;;;;;;10.93;2.10;;;16.00;99.90;;;;;;4819354;29;20480;-68
2022/09/24 10:17:15;;;;;;;9.93;2.63;;;15.90;99.90;;;;;;4831143;29;20053;-67
2022/09/24 10:19:44;;;;;;;7.05;1.90;;;15.80;99.90;;;;;;4839156;29;20502;-67
2022/09/24 10:22:22;;;;;;;9.35;1.75;;;15.80;99.90;;;;;;4800257;29;20051;-67
2022/09/24 10:24:51;;;;;;;9.45;2.00;;;16.00;99.90;;;;;;4811823;29;20046;-67
2022/09/24 10:27:50;;;;;;;10.15;2.17;;;15.50;99.90;;;;;;4823981;29;20440;-68
2022/09/24 10:30:34;;;;;;;6.53;1.58;;;15.40;99.90;;;;;;4808518;29;20428;-68
2022/09/24 10:33:02;;;;;;;7.63;2.05;;;15.30;99.90;;;;;;4822449;29;20383;-68
2022/09/24 10:35:37;;;;;;;7.75;2.33;;;15.20;99.90;;;;;;4820781;29;20050;-67
2022/09/24 10:38:18;;;;;;;9.35;1.77;;;15.10;99.90;;;;;;4823643;29;20498;-68
2022/09/24 10:40:44;;;;;;;12.55;2.20;;;15.00;99.90;;;;;;4823970;29;20050;-67
2022/09/24 10:43:24;;;;;;;6.03;1.90;;;15.00;99.90;;;;;;4824562;29;20248;-67
2022/09/24 10:46:16;;;;;;;4.53;1.75;;;14.70;99.90;;;;;;4822195;29;20050;-68
2022/09/24 10:48:48;;;;;;;8.75;2.00;;;14.90;99.90;;;;;;4823489;29;20061;-68
2022/09/24 10:51:51;;;;;;;9.23;1.77;;;14.80;99.90;;;;;;4790751;29;20204;-68
2022/09/24 10:54:35;;;;;;;9.90;1.58;;;14.80;99.90;;;;;;4772318;29;20046;-68
2022/09/24 10:57:20;;;;;;;9.52;1.70;;;14.70;99.90;;;;;;4822190;29;20050;-67
2022/09/24 11:04:24;;;;;;;4.50;1.40;;;14.70;99.90;;;;;;4805772;29;20495;-67
2022/09/24 11:07:21;;;;;;;4.57;1.50;;;14.70;99.90;;;;;;4818509;29;20553;-68
2022/09/24 11:09:57;;;;;;;5.85;1.10;;;14.70;99.90;;;;;;4811180;29;20042;-68
2022/09/24 11:16:48;;;;;;;4.20;1.27;;;14.70;99.90;;;;;;4821314;29;20061;-65
2022/09/24 11:19:52;;;;;;;3.72;1.40;;;14.70;99.90;;;;;;4804586;29;20051;-67
2022/09/24 11:22:49;;;;;;;10.40;1.88;;;14.80;99.90;;;;;;4806115;29;20054;-67
2022/09/24 11:25:37;;;;;;;2.60;0.90;;;14.90;99.90;;;;;;4791917;29;20059;-66
2022/09/24 11:28:18;;;;;;;6.22;1.23;;;15.00;99.90;;;;;;4822612;29;20053;-66
2022/09/24 11:31:15;;;;;;;4.57;1.00;;;15.00;99.90;;;;;;4814998;29;20106;-66
2022/09/24 11:34:01;;;;;;;4.15;0.90;;;15.00;99.90;;;;;;4815383;29;20060;-66
2022/09/24 11:36:50;;;;;;;3.53;1.23;;;15.00;99.90;;;;;;4822093;29;20392;-66
2022/09/24 11:39:33;;;;;;;2.28;0.80;;;14.90;99.90;;;;;;4807242;29;20097;-66
2022/09/24 11:42:06;;;;;;;4.00;1.00;;;14.90;99.90;;;;;;4806203;29;20069;-66
2022/09/24 11:44:40;;;;;;;3.10;0.95;;;14.80;99.90;;;;;;4824020;29;20054;-66
2022/09/24 11:47:47;;;;;;;3.22;1.00;;;14.90;99.90;;;;;;4823816;29;20054;-66
2022/09/24 11:50:21;;;;;;;2.72;1.00;;;14.90;99.90;;;;;;4823713;29;20070;-66
2022/09/24 11:52:54;;;;;;;4.47;1.10;;;14.90;99.90;;;;;;4821271;29;20154;-67
2022/09/24 11:55:33;;;;;;;4.28;1.10;;;14.90;99.90;;;;;;4799946;29;20061;-67
2022/09/24 11:58:24;;;;;;;2.95;1.05;;;15.00;99.90;;;;;;4820811;29;20159;-67
2022/09/24 12:01:02;;;;;;;5.93;1.00;;;15.10;99.90;;;;;;4816380;29;21713;-67
2022/09/24 12:03:51;;;;;;;3.70;1.33;;;15.00;99.90;;;;;;4805652;29;20508;-67
2022/09/24 12:06:26;;;;;;;3.53;0.90;;;15.00;99.90;;;;;;4788517;29;20117;-66
2022/09/24 12:09:32;;;;;;;4.15;0.98;;;15.00;99.90;;;;;;4794968;29;20047;-66
2022/09/24 12:12:07;;;;;;;3.95;1.42;;;15.10;99.90;;;;;;4699777;30;20057;-66
2022/09/24 12:14:48;;;;;;;3.22;1.38;;;15.10;99.90;;;;;;4780843;29;20054;-66
2022/09/24 12:17:25;;;;;;;5.43;1.70;;;15.10;99.90;;;;;;4788847;29;20042;-66
2022/09/24 12:20:05;;;;;;;5.78;1.63;;;15.20;99.90;;;;;;4804539;29;20074;-66
2022/09/24 12:22:34;;;;;;;3.95;1.20;;;15.20;99.90;;;;;;4806045;29;20035;-65
2022/09/24 12:25:00;;;;;;;5.93;1.27;;;15.20;99.90;;;;;;4804967;29;20087;-66
2022/09/24 12:27:34;;;;;;;6.38;1.38;;;15.30;99.90;;;;;;4789060;29;20121;-66
2022/09/24 12:33:28;;;;;;;4.60;1.08;;;15.30;99.90;;;;;;4805060;29;20084;-66
2022/09/24 12:36:05;;;;;;;3.15;0.80;;;15.40;99.90;;;;;;4787419;29;20051;-66
2022/09/24 12:39:01;;;;;;;4.85;0.90;;;15.50;99.90;;;;;;4807606;29;20132;-66
2022/09/24 12:41:35;;;;;;;5.72;0.93;;;15.50;99.90;;;;;;4791257;29;20078;-66
2022/09/24 12:44:14;;;;;;;3.65;1.00;;;15.60;99.90;;;;;;4807126;29;20410;-66
2022/09/24 12:46:51;;;;;;;6.82;1.25;;;15.60;99.90;;;;;;4808408;29;20049;-66
2022/09/24 12:49:26;;;;;;;3.35;0.93;;;15.60;99.90;;;;;;4805399;29;20050;-66
2022/09/24 12:52:03;;;;;;;3.05;1.30;;;15.50;99.90;;;;;;4791706;29;20481;-65
2022/09/24 12:54:33;;;;;;;4.07;1.20;;;15.50;99.90;;;;;;4802405;29;20134;-66
2022/09/24 12:57:09;;;;;;;5.32;1.35;;;15.50;99.90;;;;;;4792262;29;20142;-66
2022/09/24 12:59:47;;;;;;;6.10;1.30;;;15.60;99.90;;;;;;4805469;29;20358;-66
2022/09/24 13:02:19;;;;;;;4.63;1.15;;;15.60;99.90;;;;;;4812107;29;20050;-66
2022/09/24 13:05:00;;;;;;;4.03;1.20;;;15.60;99.90;;;;;;4827922;29;20042;-65
2022/09/24 13:07:34;;;;;;;4.00;1.33;;;15.50;99.90;;;;;;4822557;29;20086;-66
2022/09/24 13:10:15;;;;;;;3.75;0.90;;;15.40;99.90;;;;;;4823361;29;20094;-65
2022/09/24 13:12:41;;;;;;;3.83;1.42;;;15.40;99.90;;;;;;4822800;29;20050;-67
2022/09/24 13:15:30;;;;;;;7.30;1.30;;;15.40;99.90;;;;;;4808426;29;20058;-67
2022/09/24 13:18:03;;;;;;;5.30;1.50;;;15.30;99.90;;;;;;4809314;29;20050;-67
2022/09/24 13:20:30;;;;;;;3.55;1.20;;;15.30;99.90;;;;;;4793193;29;20069;-67
2022/09/24 13:23:15;;;;;;;4.85;1.13;;;15.30;99.90;;;;;;4822921;29;20050;-67
2022/09/24 13:25:40;;;;;;;4.95;1.08;;;15.30;99.90;;;;;;4823722;29;20053;-67
2022/09/24 13:28:28;;;;;;;4.97;1.20;;;15.20;99.90;;;;;;4825037;29;20042;-67
2022/09/24 13:31:07;;;;;;;4.22;1.20;;;15.20;99.90;;;;;;4824775;29;20122;-67
2022/09/24 13:33:42;;;;;;;3.88;1.10;;;15.20;99.90;;;;;;4804548;29;20042;-68
2022/09/24 13:36:24;;;;;;;3.40;1.00;;;15.30;99.90;;;;;;4818566;29;20047;-68
2022/09/24 13:39:10;;;;;;;;;;;15.10;99.90;;;;;;4825395;29;20106;-67
2022/09/24 13:42:01;;;;;;;4.90;1.20;;;15.10;99.90;;;;;;4810240;29;20256;-68
2022/09/24 13:44:32;;;;;;;5.03;1.20;;;15.00;99.90;;;;;;4818702;29;20074;-67
2022/09/24 13:47:04;;;;;;;2.90;1.27;;;15.10;99.90;;;;;;4802462;29;20055;-68